Time;durP1;ratioP1;P1;durP2;ratioP2;P2;SDS_P1;SDS_P2;PMS_P1;PMS_P2;Temp;Humidity;BMP_temperature;BMP_pressure;BME280_temperature;BME280_humidity;BME280_pressure;Samples;Min_cycle;Max_cycle;Signal;HPM_P1;HPM_P2
2021/12/11 00:01:39;;;;;;;1.10;1.10;;;;;;;2.99;100.00;95022.19;5009148;28;101795;-63
2021/12/11 00:04:12;;;;;;;1.20;1.10;;;;;;;2.97;100.00;95021.63;5011800;28;104858;-63
2021/12/11 00:06:44;;;;;;;1.00;1.00;;;;;;;3.00;100.00;95023.81;5009073;28;101968;-63
2021/12/11 00:09:16;;;;;;;1.20;1.10;;;;;;;3.02;100.00;95026.97;5009037;28;105311;-63
2021/12/11 00:11:57;;;;;;;1.00;1.00;;;;;;;2.99;100.00;95023.00;5008307;28;103689;-63
2021/12/11 00:14:28;;;;;;;0.90;0.90;;;;;;;3.02;100.00;95026.97;5042737;27;101840;-63
2021/12/11 00:16:55;;;;;;;1.30;1.00;;;;;;;3.01;100.00;95033.28;5008967;28;104876;-63
2021/12/11 00:19:26;;;;;;;1.20;1.10;;;;;;;2.98;100.00;95033.72;5009693;28;103072;-63
2021/12/11 00:21:54;;;;;;;0.97;0.90;;;;;;;3.01;100.00;95038.53;5008302;28;101842;-63
2021/12/11 00:24:26;;;;;;;1.53;1.10;;;;;;;2.97;100.00;95042.66;5008893;28;105119;-63
2021/12/11 00:26:58;;;;;;;1.00;1.00;;;;;;;3.00;100.00;95050.06;5010681;28;103921;-63
2021/12/11 00:29:29;;;;;;;1.20;0.90;;;;;;;2.99;100.00;95059.75;5010360;28;102941;-63
2021/12/11 00:31:58;;;;;;;2.50;1.47;;;;;;;2.91;100.00;95065.41;5007761;28;105296;-63
2021/12/11 00:34:25;;;;;;;2.30;1.47;;;;;;;2.84;100.00;95069.97;5008712;28;101843;-63
2021/12/11 00:36:55;;;;;;;1.17;1.17;;;;;;;2.83;100.00;95073.63;5042482;27;104916;-63
2021/12/11 00:39:23;;;;;;;1.40;1.30;;;;;;;2.80;100.00;95075.94;5041524;27;105241;-63
2021/12/11 00:41:54;;;;;;;2.03;1.40;;;;;;;2.72;100.00;95081.53;5008383;28;101982;-63
2021/12/11 00:44:42;;;;;;;2.27;1.80;;;;;;;2.73;100.00;95083.16;5008805;28;104905;-63
2021/12/11 00:47:12;;;;;;;2.70;2.50;;;;;;;2.63;100.00;95101.31;5041640;27;105861;-63
2021/12/11 00:49:50;;;;;;;3.67;1.80;;;;;;;2.62;100.00;95105.75;5012030;28;101895;-63
2021/12/11 00:52:26;;;;;;;2.43;2.23;;;;;;;2.63;100.00;95109.19;5007442;28;105145;-63
2021/12/11 00:54:54;;;;;;;3.63;1.93;;;;;;;2.67;100.00;95112.97;5008231;28;101816;-63
2021/12/11 00:57:23;;;;;;;2.67;2.23;;;;;;;2.66;100.00;95121.84;5007603;28;105313;-63
2021/12/11 01:00:07;;;;;;;5.03;2.60;;;;;;;2.64;100.00;95123.91;5008916;28;102494;-63
2021/12/11 01:02:34;;;;;;;2.70;2.47;;;;;;;2.63;100.00;95127.56;5008290;28;102172;-63
2021/12/11 01:05:03;;;;;;;3.07;2.50;;;;;;;2.58;100.00;95130.09;5008508;28;103760;-63
2021/12/11 01:07:32;;;;;;;2.87;2.60;;;;;;;2.59;100.00;95134.28;5007583;28;105305;-63
2021/12/11 01:10:02;;;;;;;2.80;2.43;;;;;;;2.62;100.00;95139.09;5007937;28;102077;-63
2021/12/11 01:12:38;;;;;;;2.77;2.57;;;;;;;2.59;100.00;95129.06;5010844;28;105176;-63
2021/12/11 01:15:14;;;;;;;2.87;2.57;;;;;;;2.56;100.00;95145.28;5009712;28;101650;-63
2021/12/11 01:17:49;;;;;;;2.87;2.60;;;;;;;2.57;100.00;95139.00;5008213;28;105406;-63
2021/12/11 01:20:22;;;;;;;2.47;2.20;;;;;;;2.59;100.00;95148.22;5007368;28;105815;-63
2021/12/11 01:22:49;;;;;;;4.07;2.23;;;;;;;2.64;100.00;95156.22;5041608;27;102745;-63
2021/12/11 01:25:20;;;;;;;2.80;2.17;;;;;;;2.65;100.00;95151.75;5009646;28;102582;-63
2021/12/11 01:27:51;;;;;;;2.63;2.00;;;;;;;2.62;100.00;95158.25;5007107;28;105024;-63
2021/12/11 01:30:24;;;;;;;3.47;2.33;;;;;;;2.61;100.00;95164.53;5007881;28;101810;-63
2021/12/11 01:32:51;;;;;;;2.80;2.50;;;;;;;2.65;100.00;95163.03;5009509;28;102900;-63
2021/12/11 01:35:20;;;;;;;2.87;2.60;;;;;;;2.60;100.00;95176.06;5013012;28;102051;-63
2021/12/11 01:37:48;;;;;;;3.60;3.13;;;;;;;2.59;100.00;95174.47;5011365;28;105770;-63
2021/12/11 01:40:22;;;;;;;4.63;2.80;;;;;;;2.58;100.00;95177.31;5010602;28;105397;-63
2021/12/11 01:42:49;;;;;;;2.97;2.77;;;;;;;2.58;100.00;95182.56;5011360;28;102332;-63
2021/12/11 01:45:20;;;;;;;2.73;2.50;;;;;;;2.58;100.00;95187.81;5011035;28;105229;-63
2021/12/11 01:47:48;;;;;;;3.03;2.80;;;;;;;2.50;100.00;95191.56;5010558;28;105487;-63
2021/12/11 01:50:23;;;;;;;3.27;2.97;;;;;;;2.49;100.00;95199.66;5011171;28;101808;-63
2021/12/11 01:52:54;;;;;;;5.37;3.47;;;;;;;2.47;100.00;95204.34;5011178;28;104986;-63
2021/12/11 01:55:25;;;;;;;6.20;3.73;;;;;;;2.47;100.00;95201.72;5013790;28;105605;-63
2021/12/11 01:57:55;;;;;;;5.83;3.70;;;;;;;2.51;100.00;95203.66;5010808;28;105425;-63
2021/12/11 02:00:28;;;;;;;5.00;3.50;;;;;;;2.48;100.00;95206.75;5010371;28;105470;-63
2021/12/11 02:02:59;;;;;;;3.53;2.97;;;;;;;2.60;100.00;95211.97;5010898;28;101800;-63
2021/12/11 02:05:30;;;;;;;4.43;3.20;;;;;;;2.52;100.00;95209.72;5012215;28;102329;-63
2021/12/11 02:08:01;;;;;;;6.33;3.53;;;;;;;2.50;100.00;95214.38;5011878;28;102988;-63
2021/12/11 02:10:34;;;;;;;2.93;2.50;;;;;;;2.53;100.00;95212.13;5010600;28;101828;-63
2021/12/11 02:13:04;;;;;;;2.87;2.43;;;;;;;2.60;100.00;95212.78;5010683;28;105148;-63
2021/12/11 02:15:39;;;;;;;1.80;1.70;;;;;;;2.69;100.00;95215.88;5010173;28;105303;-63
2021/12/11 02:18:11;;;;;;;1.40;1.30;;;;;;;2.77;100.00;95223.38;5014230;28;101822;-63
2021/12/11 02:20:43;;;;;;;0.87;0.87;;;;;;;3.04;100.00;95216.59;5010882;28;104917;-63
2021/12/11 02:23:13;;;;;;;0.83;0.60;;;;;;;3.09;100.00;95228.00;5012207;28;101720;-63
2021/12/11 02:25:46;;;;;;;0.50;0.50;;;;;;;3.11;100.00;95227.78;5010375;28;104784;-63
2021/12/11 02:28:19;;;;;;;0.50;0.50;;;;;;;3.22;100.00;95232.22;5009759;28;106358;-63
2021/12/11 02:30:51;;;;;;;0.67;0.67;;;;;;;3.19;100.00;95237.91;5011863;28;101696;-63
2021/12/11 02:33:23;;;;;;;0.73;0.70;;;;;;;3.22;100.00;95233.00;5010516;28;104934;-63
2021/12/11 02:35:55;;;;;;;0.70;0.70;;;;;;;3.24;100.00;95241.44;5009868;28;105951;-63
2021/12/11 02:38:32;;;;;;;0.60;0.60;;;;;;;3.29;100.00;95249.41;5010291;28;102254;-63
2021/12/11 02:41:06;;;;;;;0.60;0.60;;;;;;;3.31;100.00;95255.25;5014557;28;102320;-63
2021/12/11 02:43:38;;;;;;;0.50;0.50;;;;;;;3.30;100.00;95248.41;5044122;27;101907;-63
2021/12/11 02:46:11;;;;;;;0.50;0.50;;;;;;;3.29;100.00;95249.41;5010239;28;105025;-63
2021/12/11 02:48:42;;;;;;;0.93;0.70;;;;;;;3.27;100.00;95245.44;5009500;28;104957;-63
2021/12/11 02:51:13;;;;;;;1.17;0.87;;;;;;;3.31;100.00;95257.06;5010214;28;101917;-63
2021/12/11 02:53:44;;;;;;;0.60;0.60;;;;;;;3.35;100.00;95258.19;5010087;28;103782;-63
2021/12/11 02:56:17;;;;;;;1.00;0.60;;;;;;;3.33;100.00;95260.28;5009644;28;104917;-63
2021/12/11 02:58:48;;;;;;;0.70;0.70;;;;;;;3.27;100.00;95261.97;5011602;28;101830;-63
2021/12/11 03:01:22;;;;;;;0.70;0.70;;;;;;;3.29;100.00;95280.94;5011671;28;102529;-63
2021/12/11 03:03:57;;;;;;;0.50;0.50;;;;;;;3.29;100.00;95272.28;5012536;28;105896;-63
2021/12/11 03:06:27;;;;;;;0.60;0.50;;;;;;;3.31;100.00;95280.72;5011640;28;103244;-63
2021/12/11 03:08:59;;;;;;;1.80;0.60;;;;;;;3.28;100.00;95274.09;5010862;28;102620;-63
2021/12/11 03:11:29;;;;;;;0.50;0.50;;;;;;;3.26;100.00;95285.84;5011416;28;101664;-63
2021/12/11 03:13:58;;;;;;;1.13;0.90;;;;;;;3.33;100.00;95284.69;5011344;28;102391;-63
2021/12/11 03:16:29;;;;;;;0.60;0.50;;;;;;;3.36;100.00;95293.94;5010466;28;103181;-63
2021/12/11 03:18:58;;;;;;;0.63;0.63;;;;;;;3.27;100.00;95298.75;5011276;28;101723;-63
2021/12/11 03:21:25;;;;;;;0.50;0.50;;;;;;;3.29;100.00;95301.94;5011069;28;102375;-63
2021/12/11 03:23:53;;;;;;;0.73;0.60;;;;;;;3.31;100.00;95301.72;5010644;28;102821;-63
2021/12/11 03:26:22;;;;;;;0.77;0.60;;;;;;;3.36;100.00;95314.97;5014169;28;101808;-63
2021/12/11 03:28:50;;;;;;;0.73;0.63;;;;;;;3.42;100.00;95312.22;5010233;28;101937;-63
2021/12/11 03:31:17;;;;;;;1.20;0.60;;;;;;;3.36;100.00;95314.97;5009817;28;102183;-63
2021/12/11 03:33:48;;;;;;;0.70;0.70;;;;;;;3.34;100.00;95322.28;5010879;28;101662;-63
2021/12/11 03:36:18;;;;;;;0.70;0.70;;;;;;;3.36;100.00;95323.66;5009007;28;105086;-63
2021/12/11 03:38:50;;;;;;;0.93;0.70;;;;;;;3.40;100.00;95337.94;5009292;28;101940;-63
2021/12/11 03:41:18;;;;;;;1.00;0.67;;;;;;;3.39;100.00;95335.53;5011005;28;101731;-63
2021/12/11 03:43:47;;;;;;;0.70;0.70;;;;;;;3.33;100.00;95341.72;5008652;28;103959;-63
2021/12/11 03:46:15;;;;;;;0.60;0.60;;;;;;;3.28;100.00;95337.13;5012752;28;101844;-63
2021/12/11 03:48:46;;;;;;;1.03;0.87;;;;;;;3.34;100.00;95340.69;5008656;28;105497;-63
2021/12/11 03:51:18;;;;;;;0.53;0.53;;;;;;;3.30;100.00;95347.41;5009568;28;101928;-63
2021/12/11 03:53:45;;;;;;;1.53;0.70;;;;;;;3.26;100.00;95347.09;5009042;28;105201;-63
2021/12/11 03:56:16;;;;;;;2.10;0.80;;;;;;;3.25;100.00;95347.31;5008354;28;103797;-63
2021/12/11 03:58:49;;;;;;;1.40;0.70;;;;;;;3.24;100.00;95350.97;5008816;28;101728;-63
2021/12/11 04:01:22;;;;;;;0.80;0.80;;;;;;;3.27;100.00;95350.53;5009168;28;103953;-63
2021/12/11 04:03:51;;;;;;;1.37;0.70;;;;;;;3.31;100.00;95354.25;5008478;28;105553;-63
2021/12/11 04:06:19;;;;;;;0.60;0.60;;;;;;;3.32;100.00;95346.16;5009026;28;101690;-63
2021/12/11 04:08:49;;;;;;;0.70;0.70;;;;;;;3.25;100.00;95358.63;5011719;28;105605;-63
2021/12/11 04:11:19;;;;;;;1.07;0.97;;;;;;;3.25;100.00;95358.63;5008834;28;101897;-63
2021/12/11 04:13:48;;;;;;;0.80;0.80;;;;;;;3.24;100.00;95362.28;5009041;28;105083;-63
2021/12/11 04:16:18;;;;;;;0.70;0.60;;;;;;;3.26;100.00;95369.91;5008488;28;105387;-63
2021/12/11 04:18:45;;;;;;;0.93;0.70;;;;;;;3.23;100.00;95373.81;5010062;28;102014;-63
2021/12/11 04:21:14;;;;;;;1.17;0.63;;;;;;;3.25;100.00;95381.47;5008370;28;104922;-63
2021/12/11 04:23:41;;;;;;;0.73;0.70;;;;;;;3.26;100.00;95375.16;5007781;28;105986;-63
2021/12/11 04:26:09;;;;;;;0.90;0.90;;;;;;;3.22;100.00;95385.34;5007709;28;101886;-63
2021/12/11 04:28:39;;;;;;;0.70;0.67;;;;;;;3.30;100.00;95392.06;5008499;28;105108;-63
2021/12/11 04:31:10;;;;;;;1.17;0.70;;;;;;;3.30;100.00;95389.44;5011324;28;105802;-63
2021/12/11 04:33:43;;;;;;;0.80;0.70;;;;;;;3.24;100.00;95393.81;5008721;28;106429;-63
2021/12/11 04:36:13;;;;;;;1.13;1.03;;;;;;;3.30;100.00;95413.09;5007927;28;105033;-63
2021/12/11 04:38:41;;;;;;;1.37;0.70;;;;;;;3.25;100.00;95402.47;5008610;28;101870;-63
2021/12/11 04:41:15;;;;;;;1.00;0.77;;;;;;;3.22;100.00;95397.69;5008198;28;105598;-63
2021/12/11 04:43:43;;;;;;;1.17;0.80;;;;;;;3.28;100.00;95409.91;5007680;28;105264;-63
2021/12/11 04:46:11;;;;;;;0.60;0.60;;;;;;;3.31;100.00;95404.19;5008623;28;102059;-63
2021/12/11 04:48:53;;;;;;;0.80;0.60;;;;;;;3.32;100.00;95416.28;5008139;28;104898;-63
2021/12/11 04:51:27;;;;;;;0.60;0.60;;;;;;;3.28;100.00;95410.69;5007893;28;105684;-63
2021/12/11 04:54:05;;;;;;;0.70;0.70;;;;;;;3.34;100.00;95414.25;5013315;28;101855;-63
2021/12/11 04:56:57;;;;;;;0.50;0.50;;;;;;;3.36;100.00;95418.25;5007581;28;104565;-63
2021/12/11 04:59:51;;;;;;;1.07;0.70;;;;;;;3.34;100.00;95430.00;5008496;28;101793;-63
2021/12/11 05:02:54;;;;;;;1.40;0.80;;;;;;;3.29;100.00;95427.25;5008389;28;103975;-63
2021/12/11 05:05:40;;;;;;;0.67;0.60;;;;;;;3.30;100.00;95432.28;5041485;27;105053;-63
2021/12/11 05:08:26;;;;;;;1.00;0.70;;;;;;;3.30;100.00;95434.13;5008175;28;101808;-63
2021/12/11 05:10:58;;;;;;;0.60;0.60;;;;;;;3.29;100.00;95438.56;5011651;28;105126;-63
2021/12/11 05:13:27;;;;;;;2.23;0.53;;;;;;;3.28;100.00;95444.06;5011102;28;105722;-63
2021/12/11 05:15:57;;;;;;;0.70;0.60;;;;;;;3.25;100.00;95458.44;5011792;28;102001;-63
2021/12/11 05:18:30;;;;;;;0.70;0.70;;;;;;;3.27;100.00;95440.63;5014611;28;105902;-63
2021/12/11 05:21:07;;;;;;;1.50;0.87;;;;;;;3.30;100.00;95447.25;5045497;27;101813;-63
2021/12/11 05:23:34;;;;;;;0.77;0.70;;;;;;;3.28;100.00;95447.47;5011329;28;104818;-63
2021/12/11 05:26:03;;;;;;;1.33;0.77;;;;;;;3.35;100.00;95452.63;5010649;28;105362;-63
2021/12/11 05:28:30;;;;;;;0.77;0.70;;;;;;;3.37;100.00;95456.63;5011520;28;102111;-63
2021/12/11 05:31:00;;;;;;;1.23;0.73;;;;;;;3.36;100.00;95460.28;5011576;28;104815;-63
2021/12/11 05:33:28;;;;;;;1.17;0.70;;;;;;;3.35;100.00;95465.75;5010792;28;105928;-63
2021/12/11 05:35:55;;;;;;;0.60;0.60;;;;;;;3.38;100.00;95462.69;5011304;28;102045;-63
2021/12/11 05:38:26;;;;;;;2.03;1.27;;;;;;;3.34;100.00;95464.16;5011304;28;104957;-63
2021/12/11 05:40:59;;;;;;;0.80;0.80;;;;;;;3.33;100.00;95465.97;5014184;28;105268;-63
2021/12/11 05:43:29;;;;;;;1.07;0.67;;;;;;;3.33;100.00;95465.19;5011179;28;105229;-63
2021/12/11 05:45:56;;;;;;;0.77;0.60;;;;;;;3.30;100.00;95478.78;5010750;28;105183;-63
2021/12/11 05:48:23;;;;;;;0.70;0.70;;;;;;;3.33;100.00;95468.59;5011142;28;101933;-63
2021/12/11 05:50:54;;;;;;;2.03;0.70;;;;;;;3.32;100.00;95476.72;5011103;28;105021;-63
2021/12/11 05:53:24;;;;;;;0.50;0.50;;;;;;;3.37;100.00;95484.72;5010162;28;105813;-63
2021/12/11 05:55:55;;;;;;;2.13;0.80;;;;;;;3.34;100.00;95493.06;5010770;28;101911;-63
2021/12/11 05:58:35;;;;;;;0.60;0.60;;;;;;;3.34;100.00;95493.06;5012611;28;102875;-63
2021/12/11 06:01:05;;;;;;;0.93;0.67;;;;;;;3.31;100.00;95501.38;5013649;28;105684;-63
2021/12/11 06:03:37;;;;;;;1.13;0.80;;;;;;;3.27;100.00;95500.25;5044781;27;105219;-63
2021/12/11 06:06:04;;;;;;;1.63;0.60;;;;;;;3.33;100.00;95509.88;5010266;28;105731;-63
2021/12/11 06:08:33;;;;;;;1.10;0.60;;;;;;;3.32;100.00;95511.69;5010639;28;101931;-63
2021/12/11 06:11:01;;;;;;;0.50;0.50;;;;;;;3.27;100.00;95516.81;5010948;28;103733;-63
2021/12/11 06:13:29;;;;;;;1.17;0.70;;;;;;;3.22;100.00;95516.69;5009932;28;105190;-63
2021/12/11 06:15:56;;;;;;;1.47;1.40;;;;;;;3.27;100.00;95523.91;5010734;28;101812;-63
2021/12/11 06:18:24;;;;;;;1.10;1.10;;;;;;;3.27;100.00;95529.16;5010744;28;105681;-63
2021/12/11 06:20:51;;;;;;;1.53;0.70;;;;;;;3.31;100.00;95540.78;5009635;28;105734;-63
2021/12/11 06:23:21;;;;;;;0.63;0.63;;;;;;;3.37;100.00;95538.06;5013893;28;101776;-63
2021/12/11 06:25:53;;;;;;;0.93;0.73;;;;;;;3.31;100.00;95543.41;5009620;28;105567;-64
2021/12/11 06:28:20;;;;;;;0.70;0.70;;;;;;;3.27;100.00;95543.06;5022768;28;101830;-64
2021/12/11 06:31:26;;;;;;;0.73;0.60;;;;;;;3.32;100.00;95548.47;5030571;28;103728;-65
2021/12/11 06:33:55;;;;;;;1.03;0.70;;;;;;;3.26;100.00;95548.56;5055116;27;105420;-64
2021/12/11 06:36:24;;;;;;;0.93;0.80;;;;;;;3.29;100.00;95550.75;5030643;28;101899;-64
2021/12/11 06:38:55;;;;;;;1.60;0.87;;;;;;;3.24;100.00;95555.88;5030675;28;105218;-64
2021/12/11 06:41:29;;;;;;;0.73;0.73;;;;;;;3.20;100.00;95554.72;5030362;28;105479;-64
2021/12/11 06:43:56;;;;;;;1.20;0.60;;;;;;;3.25;100.00;95563.53;5030837;28;101769;-64
2021/12/11 06:46:23;;;;;;;0.70;0.70;;;;;;;3.21;100.00;95569.44;5033649;28;105538;-64
2021/12/11 06:48:51;;;;;;;0.60;0.60;;;;;;;3.22;100.00;95576.31;5030670;28;101857;-64
2021/12/11 06:51:20;;;;;;;0.60;0.60;;;;;;;3.18;100.00;95569.91;5030510;28;106908;-64
2021/12/11 06:53:51;;;;;;;0.70;0.70;;;;;;;3.14;100.00;95595.00;5031324;28;101982;-64
2021/12/11 06:56:21;;;;;;;0.83;0.70;;;;;;;3.15;100.00;95601.84;5030502;28;102081;-64
2021/12/11 06:58:51;;;;;;;0.50;0.50;;;;;;;3.16;100.00;95598.22;5032106;28;102460;-64
2021/12/11 07:01:23;;;;;;;0.60;0.60;;;;;;;3.11;100.00;95598.88;5030048;28;105723;-64
2021/12/11 07:03:51;;;;;;;0.70;0.70;;;;;;;3.09;100.00;95608.00;5030497;28;101856;-64
2021/12/11 07:06:18;;;;;;;2.87;0.63;;;;;;;3.06;100.00;95614.50;5030341;28;103526;-64
2021/12/11 07:08:47;;;;;;;1.90;1.00;;;;;;;3.05;100.00;95622.59;5033217;28;105677;-64
2021/12/11 07:11:54;;;;;;;1.50;0.80;;;;;;;3.06;100.00;95630.25;5030361;28;105579;-64
2021/12/11 07:14:25;;;;;;;1.00;0.63;;;;;;;3.03;100.00;95622.84;5029751;28;105362;-64
2021/12/11 07:16:53;;;;;;;0.80;0.60;;;;;;;3.03;100.00;95635.16;5030378;28;102205;-64
2021/12/11 07:19:20;;;;;;;0.80;0.80;;;;;;;3.03;100.00;95635.16;5031679;28;102969;-64
2021/12/11 07:25:18;;;;;;;0.70;0.70;;;;;;;3.05;100.00;95646.22;5030257;28;101870;-64
2021/12/11 07:27:46;;;;;;;1.00;0.90;;;;;;;3.04;100.00;95655.13;5031298;27;103206;-64
2021/12/11 07:30:15;;;;;;;1.23;1.13;;;;;;;3.04;100.00;95655.13;5029561;28;106127;-64
2021/12/11 07:32:48;;;;;;;2.87;1.70;;;;;;;3.00;100.00;95661.88;5032534;27;101928;-64
2021/12/11 07:35:15;;;;;;;1.20;1.10;;;;;;;3.01;100.00;95666.09;5030896;28;103071;-64
2021/12/11 07:37:47;;;;;;;1.50;1.20;;;;;;;2.96;100.00;95681.72;5029848;28;102254;-64
2021/12/11 07:40:14;;;;;;;0.90;0.90;;;;;;;2.98;100.00;95684.91;5031367;28;102372;-64
2021/12/11 07:42:52;;;;;;;0.83;0.80;;;;;;;2.99;100.00;95684.69;5029136;28;105045;-64
2021/12/11 07:45:21;;;;;;;0.80;0.80;;;;;;;2.98;100.00;95687.53;5029907;28;101772;-64
2021/12/11 07:47:49;;;;;;;0.97;0.83;;;;;;;2.96;100.00;95700.88;5029759;28;104415;-64
2021/12/11 07:50:17;;;;;;;0.97;0.97;;;;;;;2.96;100.00;95700.88;5029158;28;105622;-64
2021/12/11 07:52:48;;;;;;;0.90;0.90;;;;;;;2.93;100.00;95711.03;5029864;28;101960;-64
2021/12/11 07:55:24;;;;;;;0.80;0.80;;;;;;;2.93;100.00;95711.84;5032367;28;105081;-64
2021/12/11 07:57:52;;;;;;;0.80;0.80;;;;;;;2.94;100.00;95718.69;5029572;28;102001;-64
2021/12/11 08:00:25;;;;;;;1.23;1.10;;;;;;;2.92;100.00;95720.75;5029710;28;103699;-64
2021/12/11 08:02:52;;;;;;;2.00;1.40;;;;;;;2.95;100.00;95730.78;5028873;28;105066;-64
2021/12/11 08:05:21;;;;;;;3.10;2.60;;;;;;;2.94;100.00;95729.19;5029362;28;101870;-64
2021/12/11 08:07:48;;;;;;;2.33;1.27;;;;;;;2.95;100.00;95738.66;5029229;28;105477;-64
2021/12/11 08:10:20;;;;;;;0.97;0.97;;;;;;;2.97;100.00;95735.84;5028824;28;105024;-64
2021/12/11 08:16:12;;;;;;;0.80;0.80;;;;;;;2.95;100.00;95746.56;5031816;28;106013;-64
2021/12/11 08:18:39;;;;;;;1.40;1.30;;;;;;;2.96;100.00;95748.16;5027477;28;101858;-64
2021/12/11 08:21:20;;;;;;;1.33;0.83;;;;;;;3.00;100.00;95751.16;5028649;28;104097;-64
2021/12/11 08:23:53;;;;;;;1.00;0.80;;;;;;;3.03;100.00;95758.59;5028487;28;105715;-64
2021/12/11 08:26:21;;;;;;;2.87;1.30;;;;;;;3.04;100.00;95760.19;5020899;28;101831;-64
2021/12/11 08:28:51;;;;;;;2.73;1.23;;;;;;;3.07;100.00;95765.03;5029098;28;105057;-64
2021/12/11 08:31:25;;;;;;;1.60;0.90;;;;;;;3.11;100.00;95774.06;5028542;28;105495;-64
2021/12/11 08:33:53;;;;;;;1.83;0.90;;;;;;;3.11;100.00;95779.31;5030167;28;101920;-64
2021/12/11 08:36:22;;;;;;;0.90;0.90;;;;;;;3.12;100.00;95789.59;5029762;28;102434;-64
2021/12/11 08:38:51;;;;;;;1.00;1.00;;;;;;;3.14;100.00;95786.75;5031421;28;105614;-64
2021/12/11 08:41:24;;;;;;;1.57;1.10;;;;;;;3.14;100.00;95789.38;5027251;28;105134;-64
2021/12/11 08:43:58;;;;;;;3.43;2.40;;;;;;;3.14;100.00;95794.63;5028659;27;105951;-64
2021/12/11 08:46:29;;;;;;;1.87;1.70;;;;;;;3.16;100.00;95800.50;5056755;27;101837;-64
2021/12/11 08:48:59;;;;;;;4.27;1.77;;;;;;;3.18;100.00;95801.84;5058992;27;104798;-64
2021/12/11 08:51:29;;;;;;;3.30;1.43;;;;;;;3.18;100.00;95804.47;5028469;28;104973;-64
2021/12/11 08:53:56;;;;;;;2.13;1.60;;;;;;;3.21;100.00;95813.75;5033278;27;101679;-64
2021/12/11 08:56:24;;;;;;;3.13;2.13;;;;;;;3.21;100.00;95813.75;5031710;28;103662;-64
2021/12/11 08:58:53;;;;;;;4.27;2.00;;;;;;;3.23;100.00;95822.22;5031022;28;105375;-64
2021/12/11 09:01:27;;;;;;;2.23;1.80;;;;;;;3.25;100.00;95817.56;5032762;28;102189;-64
2021/12/11 09:04:00;;;;;;;2.70;2.37;;;;;;;3.21;100.00;95824.25;5031402;28;106067;-64
2021/12/11 09:06:33;;;;;;;1.77;1.53;;;;;;;3.23;100.00;95824.84;5032092;28;102100;-64
2021/12/11 09:09:07;;;;;;;1.33;1.23;;;;;;;3.25;100.00;95835.94;5033390;28;102376;-64
2021/12/11 09:11:39;;;;;;;1.23;1.00;;;;;;;3.24;100.00;95845.66;5031098;28;105025;-64
2021/12/11 09:14:09;;;;;;;0.97;0.97;;;;;;;3.27;100.00;95837.34;5031365;28;101736;-64
2021/12/11 09:16:42;;;;;;;1.17;1.07;;;;;;;3.30;100.00;95851.84;5031193;28;105423;-64
2021/12/11 09:19:13;;;;;;;1.97;1.37;;;;;;;3.31;100.00;95851.66;5030395;28;105248;-64
2021/12/11 09:21:45;;;;;;;1.70;1.60;;;;;;;3.35;100.00;95857.25;5031311;28;101770;-64
2021/12/11 09:24:18;;;;;;;2.53;2.10;;;;;;;3.36;100.00;95866.75;5036102;28;102688;-64
2021/12/11 09:26:53;;;;;;;1.77;1.57;;;;;;;3.39;100.00;95863.69;5030957;28;101882;-64
2021/12/11 09:29:24;;;;;;;1.80;1.33;;;;;;;3.39;100.00;95874.22;5031697;28;105108;-64
2021/12/11 09:32:07;;;;;;;1.50;1.40;;;;;;;3.38;100.00;95872.59;5032402;28;103119;-64
2021/12/11 09:34:41;;;;;;;1.43;1.20;;;;;;;3.40;100.00;95886.31;5031219;28;101948;-64
2021/12/11 09:37:09;;;;;;;4.50;2.77;;;;;;;3.40;100.00;95897.66;5031666;28;104991;-64
2021/12/11 09:39:39;;;;;;;1.10;1.10;;;;;;;3.36;100.00;95904.34;5030567;28;105323;-64
2021/12/11 09:42:12;;;;;;;0.80;0.80;;;;;;;2.69;100.00;95933.19;5032981;28;101836;-64
2021/12/11 09:44:44;;;;;;;1.10;1.00;;;;;;;2.20;100.00;95930.44;5031189;28;105515;-64
2021/12/11 09:47:15;;;;;;;3.17;2.90;;;;;;;1.87;100.00;95944.75;5034407;28;103725;-64
2021/12/11 09:49:45;;;;;;;14.60;10.97;;;;;;;1.69;100.00;95952.47;5032911;28;102400;-64
2021/12/11 09:52:18;;;;;;;2.60;2.40;;;;;;;1.64;100.00;95954.91;5031075;28;102780;-64
2021/12/11 09:54:49;;;;;;;1.67;1.40;;;;;;;1.61;100.00;95965.78;5032147;27;101977;-64
2021/12/11 09:57:20;;;;;;;1.20;1.10;;;;;;;1.64;100.00;95973.25;5032291;28;102297;-64
2021/12/11 09:59:51;;;;;;;1.83;1.73;;;;;;;1.63;100.00;95979.47;5030581;28;104980;-64
2021/12/11 10:02:22;;;;;;;1.70;1.60;;;;;;;1.64;100.00;95975.84;5032768;28;101642;-64
2021/12/11 10:04:58;;;;;;;1.60;1.50;;;;;;;1.62;100.00;95977.84;5032843;28;102352;-64
2021/12/11 10:07:30;;;;;;;1.97;1.87;;;;;;;1.64;100.00;95973.25;5030426;28;103930;-63
2021/12/11 10:10:05;;;;;;;2.70;2.50;;;;;;;1.65;100.00;95977.47;5034096;28;102103;-63
2021/12/11 10:12:36;;;;;;;3.53;3.00;;;;;;;1.66;100.00;95984.31;5030119;28;105455;-64
2021/12/11 10:15:10;;;;;;;4.20;2.40;;;;;;;1.66;100.00;95990.38;5030706;28;101841;-64
2021/12/11 10:17:42;;;;;;;2.80;2.60;;;;;;;1.75;100.00;95990.94;5030968;28;105573;-63
2021/12/11 10:20:14;;;;;;;4.70;2.50;;;;;;;1.77;100.00;95996.78;5030022;28;105312;-64
2021/12/11 10:22:43;;;;;;;2.60;2.40;;;;;;;1.80;100.00;95999.00;5032226;28;102038;-64
2021/12/11 10:25:14;;;;;;;2.90;2.70;;;;;;;1.85;100.00;96001.78;5030257;28;105303;-63
2021/12/11 10:27:42;;;;;;;3.97;3.63;;;;;;;1.88;100.00;96009.25;5029749;28;105830;-63
2021/12/11 10:30:13;;;;;;;3.40;2.67;;;;;;;1.92;100.00;96013.88;5033382;28;101875;-64
2021/12/11 10:32:40;;;;;;;2.50;2.30;;;;;;;1.96;100.00;96011.63;5030033;28;105287;-63
2021/12/11 10:35:13;;;;;;;2.80;2.60;;;;;;;2.03;100.00;96017.69;5030650;28;102349;-63
2021/12/11 10:37:43;;;;;;;3.97;2.77;;;;;;;2.02;100.00;96023.94;5030452;28;105648;-63
2021/12/11 10:40:14;;;;;;;3.20;2.70;;;;;;;2.09;100.00;96025.53;5029102;28;105319;-63
2021/12/11 10:42:44;;;;;;;3.27;2.97;;;;;;;2.08;100.00;96031.78;5029983;28;101830;-64
2021/12/11 10:45:17;;;;;;;2.90;2.70;;;;;;;2.10;100.00;96018.47;5030160;28;105059;-63
2021/12/11 10:47:48;;;;;;;3.43;3.13;;;;;;;2.19;100.00;96030.34;5029604;28;105947;-63
2021/12/11 10:50:21;;;;;;;4.37;3.27;;;;;;;2.13;100.00;96031.19;5030278;28;102078;-63
2021/12/11 10:52:48;;;;;;;3.33;3.13;;;;;;;2.21;100.00;96036.19;5033261;28;105274;-64
2021/12/11 10:55:19;;;;;;;2.60;2.40;;;;;;;2.18;100.00;96034.00;5030293;28;101956;-64
2021/12/11 10:57:47;;;;;;;2.70;2.50;;;;;;;2.23;100.00;96036.78;5029573;28;103629;-63
2021/12/11 11:00:21;;;;;;;3.27;3.07;;;;;;;2.33;100.00;96039.78;5029382;28;105487;-63
2021/12/11 11:02:49;;;;;;;3.93;3.63;;;;;;;2.38;100.00;96042.56;5030085;28;101864;-63
2021/12/11 11:05:20;;;;;;;2.97;2.77;;;;;;;2.31;100.00;96052.31;5029883;28;105073;-63
2021/12/11 11:07:48;;;;;;;3.60;3.30;;;;;;;2.23;100.00;96044.63;5028032;27;105466;-64
2021/12/11 11:10:18;;;;;;;4.30;3.90;;;;;;;2.31;100.00;96050.50;5031259;28;101852;-63
2021/12/11 11:12:46;;;;;;;5.90;4.17;;;;;;;2.34;100.00;96051.88;5030081;28;105068;-64
2021/12/11 11:15:20;;;;;;;5.57;4.93;;;;;;;2.32;100.00;96059.16;5032838;28;104382;-63
2021/12/11 11:17:49;;;;;;;4.27;3.87;;;;;;;2.29;100.00;96060.38;5031580;28;102448;-63
2021/12/11 11:20:22;;;;;;;3.90;3.60;;;;;;;2.28;100.00;96071.88;5029118;28;106104;-63
2021/12/11 11:22:50;;;;;;;4.83;4.03;;;;;;;2.26;100.00;96068.66;5029724;28;102068;-63
2021/12/11 11:25:20;;;;;;;3.10;2.80;;;;;;;2.31;100.00;96073.28;5029822;28;104876;-63
2021/12/11 11:27:52;;;;;;;3.23;3.03;;;;;;;2.39;100.00;96076.47;5028899;28;104213;-63
2021/12/11 11:30:27;;;;;;;3.47;3.10;;;;;;;2.29;100.00;96089.22;5029721;28;101845;-63
2021/12/11 11:32:56;;;;;;;3.50;3.20;;;;;;;2.30;100.00;96088.22;5030929;28;102321;-64
2021/12/11 11:35:27;;;;;;;3.53;3.33;;;;;;;2.28;100.00;96089.41;5028549;28;105333;-63
2021/12/11 11:37:57;;;;;;;3.43;3.17;;;;;;;2.29;100.00;96091.06;5032531;28;102259;-64
2021/12/11 11:40:29;;;;;;;3.27;2.97;;;;;;;2.27;100.00;96100.94;5028464;28;105753;-63
2021/12/11 11:42:57;;;;;;;3.83;3.53;;;;;;;2.29;100.00;96101.56;5030948;28;101771;-63
2021/12/11 11:45:27;;;;;;;5.57;3.80;;;;;;;2.35;100.00;96101.50;5029324;28;105188;-63
2021/12/11 11:47:54;;;;;;;4.60;4.20;;;;;;;2.33;100.00;96107.97;5028731;28;104342;-63
2021/12/11 11:50:25;;;;;;;4.50;4.03;;;;;;;2.35;100.00;96116.47;5028857;28;101893;-63